x

Buoy F01 - West Penobscot Bay (44033) Wave Buoy

9:04pm - Tue 25th Nov 2014 All times are EST. -5 hours from GMT.

  • Sig Wave height 3.0ft
  • Peak Period 11s
  • Wind
    9mph, 11mph gusts
  • Sea Temp 50°f
  • Air Temp 50°f
  • Sea Pressure 1014.5mb
  • Buoy F01 - West Penobscot Bay
  • Buoy F01 - West Penobscot Bay

More Historic Weather Station data

Upgrade to MSW Pro to gain access to the past 30 days of data for over 8000 Wavebouys and Weather Stations around the globe.

Join Pro

Comparision Forecast

View Surf forecast
   
Tue 11/25 9:04pm 3ft 11s 9 11 mph 1014.5mb 50f 50f
8:04pm  -   -  16 18 mph 1013.3mb 50f 52f
7:04pm 2.5ft 5s 16 18 mph 1012.3mb 50f 53f
6:04pm 3ft 6s 13 16 mph 1011.1mb 50f 53f
5:04pm  -   -  13 16 mph 1009.6mb 50f 53f
4:04pm 3ft 6s 13 16 mph 1008.4mb 50f 53f
3:04pm 4ft 6s 13 16 mph 1008.5mb 50f 53f
2:04pm 3ft 5s 16 18 mph 1007.8mb 49f 53f
1:04pm 3.5ft 8s 18 20 mph 1007.5mb 49f 53f
12:04pm 4.5ft 6s 18 20 mph 1007.1mb 49f 55f
11:04am 4.5ft 8s 16 18 mph 1007.4mb 49f 53f
10:04am 5ft 11s 18 20 mph 1007.2mb 49f 53f
9:04am 5ft 11s 20 22 mph 1007.2mb 49f 54f
8:04am 4.5ft 8s 16 20 mph 1006.6mb 50f 53f
7:04am 5ft 8s 16 18 mph 1005.8mb 50f 53f
6:04am 5.5ft 8s 16 18 mph 1004.8mb 50f 53f
5:04am 5ft 6s 13 16 mph 1004.4mb 50f 53f
4:04am 5ft 11s 13 16 mph 1003.6mb 49f 53f
3:04am 5ft 6s 11 13 mph 1003.3mb 49f 55f
2:04am  -   -  20 25 mph 1002.5mb 49f 57f
1:04am 5.5ft 8s 16 20 mph 1001.8mb 49f 54f
12:04am 6ft 8s 18 20 mph 1001.5mb 49f 54f
Mon 11/24 11:04pm 6ft 8s 20 22 mph 1000.7mb 49f 54f
10:04pm 5.5ft 8s 22 27 mph 1000.4mb 49f 54f
9:04pm 7ft 6s 25 29 mph 1000.4mb 49f 54f
8:04pm 6ft 8s 22 29 mph 1000.9mb 49f 54f
7:04pm 6.5ft 8s 22 27 mph 1001.3mb 49f 55f
6:04pm 6.5ft 8s 22 27 mph 1000.4mb 49f 55f
5:04pm 7ft 6s 25 31 mph 1000.6mb 49f 55f
4:04pm 7ft 8s 22 29 mph 1001.2mb 49f 54f
3:04pm 6ft 6s 25 29 mph 1002mb 49f 55f
2:04pm 8ft 6s 29 36 mph 1002mb 49f 55f
1:04pm 7.5ft 6s 25 31 mph 1003.1mb 49f 54f
12:04pm 7.5ft 6s 31 38 mph 1004.4mb 49f 54f
11:04am 6ft 5s 34 40 mph 1006.1mb 49f 54f
10:04am 4.5ft 5s 25 29 mph 1008.8mb 49f 53f
9:04am 3.5ft 5s 25 27 mph 1012mb 49f 53f
8:04am 3.5ft 5s 16 18 mph 1013.3mb 49f 51f
7:04am 3.5ft 5s 13 16 mph 1014.6mb 49f 51f
6:04am 3ft 4s 13 18 mph 1015.9mb 49f 51f
5:04am 3ft 4s 16 20 mph 1016.5mb 49f 50f
4:04am 2.5ft 4s 16 20 mph 1017mb 49f 50f
3:04am 2.5ft 4s 16 18 mph 1017.6mb 49f 50f
2:04am 2.5ft 6s 16 18 mph 1018.6mb 49f 50f
1:04am 1.6ft 6s 13 16 mph 1018.5mb 49f 50f
12:04am 1.6ft 6s 11 13 mph 1018.9mb 49f 50f
Sun 11/23 11:04pm 1.6ft 6s 9 11 mph 1019.1mb 49f 50f
10:04pm 2.5ft 8s 9 11 mph 1019.2mb 49f 50f
9:04pm 2.5ft 6s 9
mph
1019.9mb 49f 50f
8:04pm 2.5ft 6s 9
mph
1020.1mb 49f 50f
7:04pm 2.5ft 6s 4
mph
1019.3mb 49f 49f
6:04pm 2.5ft 6s 4 7 mph 1019.1mb 49f 49f
5:04pm 2.5ft 6s 7 9 mph 1018.8mb 49f 49f
4:04pm 2.5ft 8s 7 9 mph 1018.3mb 49f 49f
2:04pm 3.5ft 8s 9 11 mph 1017mb 49f 50f
1:04pm 3.5ft 8s 9 11 mph 1016.7mb 49f 50f
12:04pm 3.5ft 8s 9 11 mph 1016.5mb 50f 49f
11:04am 2.5ft 8s 11
mph
1017mb 50f 48f
10:04am 3.5ft 8s 9 11 mph 1016.8mb 49f 47f
9:04am 4ft 8s 13 16 mph 1016.7mb 49f 46f
8:04am 3.5ft 8s 13 16 mph 1016.1mb 49f 44f
7:04am 3.5ft 8s 13 16 mph 1015.5mb 49f 44f
6:04am 3.5ft 8s 11 13 mph 1014.9mb 49f 43f
5:04am 3.5ft 8s 11 13 mph 1014.3mb 49f 43f
4:04am 3.5ft 8s 13 18 mph 1013.7mb 50f 43f
3:04am 4.5ft 8s 11 13 mph 1013.6mb 50f 44f
2:04am 4ft 8s 13 18 mph 1013.4mb 50f 44f
12:04am 4ft 8s 18 22 mph 1012.6mb 49f 43f
Sat 11/22 11:04pm 4.5ft 8s 20 25 mph 1012.8mb 49f 44f
10:04pm 4.5ft 8s 25 31 mph 1012.7mb 49f 45f
9:04pm 5ft 8s 27 36 mph 1012.3mb 49f 46f
8:04pm 5ft 8s 27 31 mph 1013mb 50f 46f
7:04pm 4.5ft 5s 25 31 mph 1014mb 50f 45f
6:04pm 4.5ft 8s 25 29 mph 1015mb 50f 42f
5:04pm 4ft 8s 22 29 mph 1015.4mb 50f 42f
4:04pm 3.5ft 8s 20 27 mph 1015.9mb 50f 40f
3:04pm 3.5ft 6s 22 27 mph 1016.9mb 50f 38f
2:04pm 3.5ft 5s 22 27 mph 1017.4mb 50f 38f
1:04pm 4ft 5s 29 34 mph 1018.2mb 49f 38f
12:04pm 3.5ft 5s 25 31 mph 1019.5mb 49f 37f
11:04am 2.5ft 3s 25 31 mph 1021.5mb 49f 35f
10:04am 1.3ft 2s 18 22 mph 1023.6mb 49f 31f
9:04am 1.3ft 2s 13 18 mph 1024.8mb 49f 30f
8:04am 1.3ft 2s 13 16 mph 1025.3mb 49f 29f
7:04am 1ft 2s 11 16 mph 1025.6mb 50f 28f
6:04am 1ft 2s 13 18 mph 1026.1mb 50f 27f
5:04am 0.7ft  -  22 27 mph 1026.4mb 50f 26f
4:04am 0.7ft  -  11 20 mph 1026.3mb 50f 25f